createdAt,value
2023-01-10T00:00:04.535Z,18.20
2023-01-10T00:03:08.706Z,18.75
2023-01-10T00:06:10.750Z,17.63
2023-01-10T00:09:12.819Z,16.83
2023-01-10T00:12:33.355Z,15.70
2023-01-10T00:15:36.631Z,18.65
2023-01-10T00:18:38.697Z,16.83
2023-01-10T00:21:40.748Z,16.63
2023-01-10T00:24:44.140Z,16.63
2023-01-10T00:27:49.750Z,17.13
2023-01-10T00:31:01.109Z,15.70
2023-01-10T00:34:03.416Z,16.20
2023-01-10T00:37:05.461Z,17.47
2023-01-10T00:40:09.174Z,14.85
2023-01-10T00:43:29.562Z,15.00
2023-01-10T00:46:31.681Z,16.50
2023-01-10T00:49:33.726Z,17.35
2023-01-10T00:52:35.797Z,16.25
2023-01-10T00:55:37.969Z,16.08
2023-01-10T00:58:39.965Z,16.53
2023-01-10T01:01:42.113Z,14.95
2023-01-10T01:04:44.211Z,14.63
2023-01-10T01:07:49.542Z,16.33
2023-01-10T01:10:51.931Z,14.88
2023-01-10T01:13:53.973Z,13.95
2023-01-10T01:16:56.449Z,16.98
2023-01-10T01:19:58.497Z,14.70
2023-01-10T01:23:01.153Z,14.48
2023-01-10T01:26:03.436Z,16.25
2023-01-10T01:29:05.425Z,15.00
2023-01-10T01:32:07.431Z,14.55
2023-01-10T01:35:12.532Z,16.60
2023-01-10T01:38:14.650Z,13.70
2023-01-10T01:41:35.238Z,15.07
2023-01-10T01:44:39.544Z,14.15
2023-01-10T01:47:43.884Z,14.75
2023-01-10T01:50:52.404Z,13.80
2023-01-10T01:54:02.532Z,17.00
2023-01-10T01:57:07.687Z,15.65
2023-01-10T02:00:10.746Z,13.90
2023-01-10T02:03:15.994Z,15.38
2023-01-10T02:06:18.774Z,14.70
2023-01-10T02:09:39.321Z,15.50
2023-01-10T02:12:42.077Z,15.45
2023-01-10T02:15:44.125Z,15.40
2023-01-10T02:18:46.225Z,16.02
2023-01-10T02:22:03.262Z,17.40
2023-01-10T02:25:11.395Z,14.60
2023-01-10T02:28:16.171Z,17.00
2023-01-10T02:31:24.226Z,15.10
2023-01-10T02:34:35.526Z,15.38
2023-01-10T02:37:56.103Z,13.40
2023-01-10T02:41:05.666Z,14.47
2023-01-10T02:44:12.238Z,13.43
2023-01-10T02:47:14.817Z,14.05
2023-01-10T02:50:22.762Z,15.73
2023-01-10T02:53:29.858Z,14.57
2023-01-10T02:56:55.227Z,15.73
2023-01-10T03:00:09.847Z,15.23
2023-01-10T03:03:23.544Z,14.37
2023-01-10T03:06:34.556Z,16.20
2023-01-10T03:09:45.023Z,15.25
2023-01-10T03:12:50.985Z,15.77
2023-01-10T03:15:54.232Z,15.02
2023-01-10T03:19:22.435Z,15.90
2023-01-10T03:22:25.592Z,14.07
2023-01-10T03:25:28.825Z,12.80
2023-01-10T03:28:33.750Z,13.68
2023-01-10T03:31:44.830Z,16.40
2023-01-10T03:34:46.999Z,16.10
2023-01-10T03:37:56.583Z,16.95
2023-01-10T03:41:03.213Z,18.40
2023-01-10T03:44:42.505Z,14.73
2023-01-10T03:47:46.614Z,15.52
2023-01-10T03:50:49.302Z,15.57
2023-01-10T03:53:51.343Z,15.60
2023-01-10T03:56:53.359Z,15.85
2023-01-10T03:59:59.554Z,15.23
2023-01-10T04:03:01.720Z,16.98
2023-01-10T04:06:04.121Z,15.33
2023-01-10T04:09:06.164Z,14.88
2023-01-10T04:12:08.169Z,13.63
2023-01-10T04:15:10.728Z,15.03
2023-01-10T04:18:13.178Z,13.77
2023-01-10T04:21:15.212Z,15.18
2023-01-10T04:24:17.171Z,15.23
2023-01-10T04:27:19.418Z,16.65
2023-01-10T04:30:21.417Z,16.08
2023-01-10T04:33:23.486Z,16.67
2023-01-10T04:36:25.556Z,15.47
2023-01-10T04:39:27.534Z,15.57
2023-01-10T04:42:29.487Z,15.60
2023-01-10T04:45:31.514Z,15.87
2023-01-10T04:48:33.681Z,15.70
2023-01-10T04:51:35.785Z,15.32
2023-01-10T04:54:37.791Z,17.15
2023-01-10T04:57:39.823Z,16.08
2023-01-10T05:00:41.899Z,16.10
2023-01-10T05:03:43.956Z,15.18
2023-01-10T05:06:45.935Z,14.40
2023-01-10T05:09:47.893Z,14.57
2023-01-10T05:12:49.995Z,14.27
2023-01-10T05:15:56.366Z,15.93
2023-01-10T05:18:58.466Z,16.80
2023-01-10T05:22:00.475Z,17.52
2023-01-10T05:25:02.450Z,17.75
2023-01-10T05:28:04.612Z,19.08
2023-01-10T05:31:07.352Z,21.65
2023-01-10T05:34:11.694Z,20.42
2023-01-10T05:37:13.685Z,17.87
2023-01-10T05:40:15.740Z,16.38
2023-01-10T05:43:17.783Z,15.38
2023-01-10T05:46:19.850Z,18.27
2023-01-10T05:49:21.968Z,16.00
2023-01-10T05:52:24.003Z,18.85
2023-01-10T05:55:26.084Z,17.75
2023-01-10T05:58:28.303Z,21.20
2023-01-10T06:01:30.551Z,18.88
2023-01-10T06:04:32.662Z,22.27
2023-01-10T06:07:34.706Z,35.13
2023-01-10T06:10:36.881Z,43.80
2023-01-10T06:13:38.927Z,44.75
2023-01-10T06:16:41.864Z,60.63
2023-01-10T06:19:43.993Z,48.72
2023-01-10T06:22:46.074Z,30.55
2023-01-10T06:25:48.143Z,21.25
2023-01-10T06:28:50.189Z,17.90
2023-01-10T06:31:52.188Z,18.98
2023-01-10T06:34:54.237Z,19.92
2023-01-10T06:37:56.466Z,19.70
2023-01-10T06:40:58.447Z,18.55
2023-01-10T06:44:01.211Z,19.23
2023-01-10T06:47:03.764Z,23.17
2023-01-10T06:50:06.250Z,24.30
2023-01-10T06:53:09.160Z,19.98
2023-01-10T06:56:11.397Z,20.20
2023-01-10T06:59:14.213Z,19.13
2023-01-10T07:02:16.635Z,20.00
2023-01-10T07:05:19.130Z,20.35
2023-01-10T07:08:21.187Z,18.70
2023-01-10T07:11:23.490Z,23.20
2023-01-10T07:14:25.744Z,24.55
2023-01-10T07:17:27.886Z,22.73
2023-01-10T07:20:30.001Z,25.88
2023-01-10T07:23:32.154Z,29.13
2023-01-10T07:26:34.437Z,27.15
2023-01-10T07:29:36.572Z,23.90
2023-01-10T07:32:38.801Z,22.83
2023-01-10T07:35:40.941Z,21.13
2023-01-10T07:38:42.996Z,18.93
2023-01-10T07:41:47.154Z,19.48
2023-01-10T07:44:50.929Z,19.02
2023-01-10T07:47:57.302Z,21.47
2023-01-10T07:51:00.456Z,21.98
2023-01-10T07:54:03.603Z,21.38
2023-01-10T07:57:05.875Z,21.25
2023-01-10T08:00:08.350Z,20.20
2023-01-10T08:03:10.996Z,20.27
2023-01-10T08:06:15.377Z,19.55
2023-01-10T08:09:18.730Z,17.93
2023-01-10T08:12:21.054Z,18.83
2023-01-10T08:15:23.266Z,21.05
2023-01-10T08:18:26.058Z,19.90
2023-01-10T08:21:28.215Z,20.05
2023-01-10T08:24:30.446Z,20.33
2023-01-10T08:27:32.585Z,19.58
2023-01-10T08:30:34.799Z,19.35
2023-01-10T08:33:40.782Z,21.75
2023-01-10T08:36:42.989Z,20.38
2023-01-10T08:39:45.248Z,20.13
2023-01-10T08:42:47.274Z,21.50
2023-01-10T08:45:50.002Z,23.77
2023-01-10T08:48:52.353Z,24.27
2023-01-10T08:51:54.964Z,20.77
2023-01-10T08:54:57.362Z,21.05
2023-01-10T08:58:00.776Z,20.02
2023-01-10T09:01:06.611Z,21.15
2023-01-10T09:04:08.689Z,23.13
2023-01-10T09:07:10.811Z,25.27
2023-01-10T09:10:13.448Z,26.00
2023-01-10T09:13:15.902Z,24.27
2023-01-10T09:16:19.037Z,35.28
2023-01-10T09:19:21.371Z,24.17
2023-01-10T09:22:30.516Z,23.17
2023-01-10T09:25:34.272Z,27.00
2023-01-10T09:28:36.578Z,29.92
2023-01-10T09:31:39.560Z,25.73
2023-01-10T09:34:41.696Z,27.67
2023-01-10T09:37:43.808Z,34.65
2023-01-10T09:41:04.763Z,27.73
2023-01-10T09:44:07.105Z,27.27
2023-01-10T09:47:21.696Z,31.08
2023-01-10T09:50:24.712Z,35.90
2023-01-10T09:53:29.768Z,33.15
2023-01-10T09:56:33.481Z,33.70
2023-01-10T09:59:38.437Z,36.63
2023-01-10T10:02:43.048Z,30.55
2023-01-10T10:05:45.346Z,28.10
2023-01-10T10:08:48.044Z,26.05
2023-01-10T10:11:57.128Z,29.80
2023-01-10T10:15:07.887Z,27.73
2023-01-10T10:18:17.175Z,29.95
2023-01-10T10:21:19.551Z,28.30
2023-01-10T10:24:21.764Z,27.05
2023-01-10T10:27:40.545Z,28.73
2023-01-10T10:30:52.189Z,30.73
2023-01-10T10:34:04.339Z,32.08
2023-01-10T10:37:12.117Z,30.98
2023-01-10T10:40:14.569Z,32.45
2023-01-10T10:43:31.190Z,32.83
2023-01-10T10:46:33.363Z,32.47
2023-01-10T10:49:38.555Z,31.83
2023-01-10T10:52:41.267Z,32.23
2023-01-10T10:55:43.526Z,28.58
2023-01-10T10:58:48.624Z,29.27
2023-01-10T11:01:52.078Z,27.17
2023-01-10T11:04:58.547Z,27.77
2023-01-10T11:08:06.919Z,27.55
2023-01-10T11:11:24.172Z,28.10
2023-01-10T11:14:46.025Z,28.77
2023-01-10T11:18:03.429Z,27.65
2023-01-10T11:21:09.055Z,27.00
2023-01-10T11:24:20.358Z,26.07
2023-01-10T11:27:39.412Z,26.48
2023-01-10T11:30:42.553Z,31.00
2023-01-10T11:33:48.184Z,28.80
2023-01-10T11:36:54.367Z,28.85
2023-01-10T11:40:14.763Z,30.13
2023-01-10T11:43:40.434Z,27.08
2023-01-10T11:46:44.081Z,25.43
2023-01-10T11:49:47.010Z,23.10
2023-01-10T11:52:49.935Z,22.17
2023-01-10T11:55:52.149Z,21.17
2023-01-10T11:58:54.584Z,18.77
2023-01-10T12:01:59.149Z,21.38
2023-01-10T12:05:03.768Z,19.63
2023-01-10T12:08:06.959Z,21.77
2023-01-10T12:11:18.173Z,20.30
2023-01-10T12:14:20.554Z,20.15
2023-01-10T12:17:33.189Z,21.07
2023-01-10T12:20:41.968Z,19.75
2023-01-10T12:23:45.392Z,16.88
2023-01-10T12:26:47.789Z,8.97
2023-01-10T12:30:02.199Z,7.97
2023-01-10T12:33:07.095Z,8.60
2023-01-10T12:36:18.092Z,8.35
2023-01-10T12:39:25.055Z,8.43
2023-01-10T12:42:55.358Z,8.02
2023-01-10T12:46:02.802Z,6.05
2023-01-10T12:49:17.345Z,6.20
2023-01-10T12:52:45.464Z,7.40
2023-01-10T12:55:47.788Z,7.05
2023-01-10T12:59:02.127Z,7.50
2023-01-10T13:02:16.264Z,8.30
2023-01-10T13:05:20.343Z,6.22
2023-01-10T13:08:23.915Z,7.53
2023-01-10T13:11:30.415Z,5.55
2023-01-10T13:14:46.536Z,5.78
2023-01-10T13:17:50.882Z,3.80
2023-01-10T13:21:19.268Z,3.23
2023-01-10T13:24:28.578Z,3.05
2023-01-10T13:27:32.495Z,3.88
2023-01-10T13:30:40.771Z,3.33
2023-01-10T13:33:56.643Z,3.90
2023-01-10T13:37:00.971Z,3.17
2023-01-10T13:40:05.665Z,2.03
2023-01-10T13:43:33.639Z,3.03
2023-01-10T13:46:37.491Z,3.70
2023-01-10T13:49:40.814Z,3.00
2023-01-10T13:52:43.070Z,3.20
2023-01-10T13:55:53.786Z,3.10
2023-01-10T13:59:14.906Z,4.28
2023-01-10T14:02:31.748Z,4.10
2023-01-10T14:05:33.980Z,3.53
2023-01-10T14:08:36.270Z,4.07
2023-01-10T14:11:44.130Z,4.18
2023-01-10T14:15:12.171Z,4.05
2023-01-10T14:18:22.704Z,4.95
2023-01-10T14:21:25.933Z,4.53
2023-01-10T14:24:30.469Z,2.87
2023-01-10T14:27:42.790Z,4.07
2023-01-10T14:30:45.353Z,4.18
2023-01-10T14:33:47.829Z,5.40
2023-01-10T14:36:53.835Z,4.80
2023-01-10T14:39:56.265Z,5.22
2023-01-10T14:43:00.865Z,5.88
2023-01-10T14:46:14.445Z,6.82
2023-01-10T14:49:21.647Z,6.18
2023-01-10T14:52:25.553Z,5.85
2023-01-10T14:55:28.179Z,7.13
2023-01-10T14:58:30.211Z,7.93
2023-01-10T15:01:32.321Z,6.57
2023-01-10T15:04:36.361Z,6.03
2023-01-10T15:07:39.030Z,6.85
2023-01-10T15:10:42.258Z,4.90
2023-01-10T15:13:52.237Z,5.20
2023-01-10T15:16:56.782Z,6.13
2023-01-10T15:19:58.969Z,5.47
2023-01-10T15:23:02.048Z,7.22
2023-01-10T15:26:10.742Z,6.00
2023-01-10T15:29:14.810Z,7.35
2023-01-10T15:32:22.349Z,5.53
2023-01-10T15:35:35.286Z,6.23
2023-01-10T15:38:38.722Z,5.78
2023-01-10T15:41:41.431Z,7.50
2023-01-10T15:44:45.290Z,7.03
2023-01-10T15:47:50.313Z,8.00
2023-01-10T15:51:18.781Z,9.60
2023-01-10T15:54:21.751Z,11.07
2023-01-10T15:57:26.069Z,7.00
2023-01-10T16:00:29.644Z,6.03
2023-01-10T16:03:33.837Z,9.00
2023-01-10T16:06:36.598Z,8.10
2023-01-10T16:09:39.851Z,6.25
2023-01-10T16:13:01.149Z,6.97
2023-01-10T16:16:05.215Z,8.43
2023-01-10T16:19:07.357Z,7.57
2023-01-10T16:22:16.346Z,7.28
2023-01-10T16:25:20.437Z,6.55
2023-01-10T16:28:23.045Z,6.87
2023-01-10T16:31:25.493Z,6.65
2023-01-10T16:34:27.631Z,5.13
2023-01-10T16:37:29.613Z,5.97
2023-01-10T16:40:37.185Z,4.00
2023-01-10T16:43:39.167Z,4.65
2023-01-10T16:46:41.186Z,4.40
2023-01-10T16:49:43.284Z,5.72
2023-01-10T16:52:45.303Z,4.40
2023-01-10T16:55:47.223Z,4.53
2023-01-10T16:58:49.735Z,3.20
2023-01-10T17:01:56.185Z,2.85
2023-01-10T17:04:59.208Z,4.63
2023-01-10T17:08:01.236Z,5.67
2023-01-10T17:11:06.585Z,4.72
2023-01-10T17:14:12.031Z,7.10
2023-01-10T17:17:14.161Z,4.95
2023-01-10T17:20:16.389Z,5.80
2023-01-10T17:23:18.402Z,4.00
2023-01-10T17:26:20.526Z,4.30
2023-01-10T17:29:23.429Z,3.50
2023-01-10T17:32:25.618Z,4.88
2023-01-10T17:35:28.623Z,3.50
2023-01-10T17:38:30.765Z,3.60
2023-01-10T17:41:33.095Z,4.10
2023-01-10T17:44:35.085Z,3.40
2023-01-10T17:47:37.362Z,4.32
2023-01-10T17:50:39.442Z,3.58
2023-01-10T17:53:41.430Z,4.07
2023-01-10T17:56:43.428Z,3.80
2023-01-10T17:59:45.408Z,3.30
2023-01-10T18:02:47.471Z,3.10
2023-01-10T18:05:50.754Z,3.00
2023-01-10T18:08:53.182Z,3.57
2023-01-10T18:11:55.359Z,3.60
2023-01-10T18:14:57.381Z,3.60
2023-01-10T18:17:59.395Z,3.72
2023-01-10T18:21:03.891Z,3.55
2023-01-10T18:24:06.117Z,3.85
2023-01-10T18:27:08.100Z,4.03
2023-01-10T18:30:10.495Z,3.77
2023-01-10T18:33:12.478Z,4.65
2023-01-10T18:36:16.329Z,8.65
2023-01-10T18:39:18.646Z,12.53
2023-01-10T18:42:20.670Z,14.50
2023-01-10T18:45:22.723Z,10.95
2023-01-10T18:48:26.042Z,11.05
2023-01-10T18:51:28.089Z,8.60
2023-01-10T18:54:31.808Z,8.07
2023-01-10T18:57:33.825Z,5.80
2023-01-10T19:00:35.809Z,5.60
2023-01-10T19:03:38.105Z,5.38
2023-01-10T19:06:40.182Z,4.85
2023-01-10T19:09:42.181Z,3.43
2023-01-10T19:12:44.178Z,3.80
2023-01-10T19:15:48.166Z,3.35
2023-01-10T19:18:51.332Z,2.75
2023-01-10T19:21:53.317Z,3.35
2023-01-10T19:24:55.319Z,3.00
2023-01-10T19:27:57.366Z,4.20
2023-01-10T19:31:04.466Z,5.10
2023-01-10T19:34:07.064Z,4.68
2023-01-10T19:37:09.059Z,4.90
2023-01-10T19:40:12.394Z,4.57
2023-01-10T19:43:14.464Z,2.45
2023-01-10T19:46:16.422Z,2.83
2023-01-10T19:49:19.660Z,4.25
2023-01-10T19:52:21.757Z,3.25
2023-01-10T19:55:23.875Z,3.22
2023-01-10T19:58:25.919Z,3.35
2023-01-10T20:01:29.072Z,2.73
2023-01-10T20:04:31.218Z,2.72
2023-01-10T20:07:33.225Z,2.53
2023-01-10T20:10:35.227Z,2.07
2023-01-10T20:13:38.534Z,2.08
2023-01-10T20:16:42.024Z,2.50
2023-01-10T20:19:44.249Z,2.30
2023-01-10T20:22:46.697Z,1.52
2023-01-10T20:26:09.510Z,3.55
2023-01-10T20:29:12.348Z,2.15
2023-01-10T20:32:15.159Z,1.70
2023-01-10T20:35:17.277Z,2.75
2023-01-10T20:38:19.257Z,2.70
2023-01-10T20:41:22.309Z,3.77
2023-01-10T20:44:26.345Z,3.00
2023-01-10T20:47:29.042Z,3.50
2023-01-10T20:50:31.140Z,2.13
2023-01-10T20:53:33.413Z,3.42
2023-01-10T20:56:35.653Z,3.58
2023-01-10T20:59:37.643Z,3.13
2023-01-10T21:02:39.676Z,2.00
2023-01-10T21:05:41.755Z,2.70
2023-01-10T21:08:43.759Z,2.45
2023-01-10T21:12:00.034Z,2.37
2023-01-10T21:15:07.972Z,1.98
2023-01-10T21:18:13.929Z,1.95
2023-01-10T21:21:17.120Z,2.75
2023-01-10T21:24:22.868Z,2.80
2023-01-10T21:27:30.372Z,1.70
2023-01-10T21:30:32.363Z,2.83
2023-01-10T21:33:34.512Z,2.20
2023-01-10T21:36:36.721Z,2.38
2023-01-10T21:39:38.811Z,1.65
2023-01-10T21:42:44.957Z,2.10
2023-01-10T21:45:47.114Z,2.10
2023-01-10T21:48:50.357Z,2.50
2023-01-10T21:51:52.655Z,2.47
2023-01-10T21:54:54.796Z,1.63
2023-01-10T21:57:56.835Z,3.35
2023-01-10T22:00:59.318Z,3.42
2023-01-10T22:04:01.431Z,2.97
2023-01-10T22:07:03.441Z,3.50
2023-01-10T22:10:06.334Z,2.63
2023-01-10T22:13:08.391Z,2.63
2023-01-10T22:16:10.535Z,2.85
2023-01-10T22:19:13.560Z,2.80
2023-01-10T22:22:16.238Z,2.83
2023-01-10T22:25:18.276Z,2.25
2023-01-10T22:28:20.366Z,3.00
2023-01-10T22:31:22.461Z,3.28
2023-01-10T22:34:24.586Z,2.57
2023-01-10T22:37:26.607Z,3.38
2023-01-10T22:40:28.630Z,3.58
2023-01-10T22:43:30.690Z,2.30
2023-01-10T22:46:33.037Z,2.70
2023-01-10T22:49:35.011Z,3.22
2023-01-10T22:52:37.020Z,2.97
2023-01-10T22:55:39.003Z,2.83
2023-01-10T22:58:47.702Z,2.40
2023-01-10T23:01:49.707Z,2.03
2023-01-10T23:04:51.637Z,2.07
2023-01-10T23:07:53.986Z,2.40
2023-01-10T23:10:55.992Z,2.30
2023-01-10T23:13:57.951Z,3.03
2023-01-10T23:16:59.914Z,3.28
2023-01-10T23:20:01.913Z,3.15
2023-01-10T23:23:03.902Z,3.90
2023-01-10T23:26:07.615Z,2.13
2023-01-10T23:29:09.574Z,3.28
2023-01-10T23:32:11.510Z,3.45
2023-01-10T23:35:13.489Z,2.17
2023-01-10T23:38:15.510Z,1.95
2023-01-10T23:41:21.183Z,2.78
2023-01-10T23:44:23.219Z,2.60
2023-01-10T23:47:25.158Z,2.45
2023-01-10T23:50:27.103Z,2.97
2023-01-10T23:53:29.118Z,3.30
2023-01-10T23:56:31.121Z,3.33
2023-01-10T23:59:33.058Z,2.83
